createdAt,value
2022-11-18T00:01:47.931Z,5.91
2022-11-18T00:04:51.870Z,5.93
2022-11-18T00:07:55.824Z,5.91
2022-11-18T00:11:38.466Z,5.76
2022-11-18T00:14:42.271Z,5.83
2022-11-18T00:17:46.166Z,5.82
2022-11-18T00:20:53.067Z,5.72
2022-11-18T00:23:57.347Z,5.88
2022-11-18T00:27:01.180Z,5.81
2022-11-18T00:30:05.707Z,5.89
2022-11-18T00:33:09.693Z,5.78
2022-11-18T00:36:14.010Z,5.89
2022-11-18T00:39:20.250Z,5.85
2022-11-18T00:42:42.938Z,5.78
2022-11-18T00:45:47.078Z,5.77
2022-11-18T00:48:51.110Z,5.80
2022-11-18T00:51:55.185Z,5.83
2022-11-18T00:54:59.035Z,5.78
2022-11-18T00:58:03.233Z,5.70
2022-11-18T01:01:07.302Z,5.73
2022-11-18T01:04:11.453Z,5.77
2022-11-18T01:07:15.634Z,5.78
2022-11-18T01:10:19.802Z,5.82
2022-11-18T01:13:25.808Z,5.78
2022-11-18T01:16:30.809Z,5.77
2022-11-18T01:19:34.960Z,5.74
2022-11-18T01:22:38.738Z,5.84
2022-11-18T01:25:44.129Z,5.82
2022-11-18T01:28:48.222Z,5.84
2022-11-18T01:32:22.771Z,5.89
2022-11-18T01:35:16.491Z,5.88
2022-11-18T01:38:20.510Z,5.80
2022-11-18T01:41:26.485Z,5.83
2022-11-18T01:45:02.079Z,5.74
2022-11-18T01:48:28.614Z,5.70
2022-11-18T01:51:36.991Z,5.69
2022-11-18T01:54:43.692Z,5.60
2022-11-18T01:57:49.521Z,5.68
2022-11-18T02:00:54.405Z,5.74
2022-11-18T02:03:58.687Z,5.70
2022-11-18T02:07:02.998Z,5.67
2022-11-18T02:10:08.907Z,5.80
2022-11-18T02:13:13.366Z,5.71
2022-11-18T02:16:26.312Z,5.71
2022-11-18T02:19:36.525Z,5.72
2022-11-18T02:23:06.603Z,5.69
2022-11-18T02:26:28.281Z,5.65
2022-11-18T02:29:44.942Z,5.66
2022-11-18T02:32:53.320Z,5.59
2022-11-18T02:36:16.075Z,5.56
2022-11-18T02:39:33.094Z,5.57
2022-11-18T02:42:39.283Z,5.55
2022-11-18T02:45:48.802Z,5.63
2022-11-18T02:48:54.137Z,5.54
2022-11-18T02:51:59.066Z,5.58
2022-11-18T02:55:07.698Z,5.59
2022-11-18T02:58:13.383Z,5.58
2022-11-18T03:01:21.217Z,5.60
2022-11-18T03:04:26.177Z,5.62
2022-11-18T03:07:34.565Z,5.51
2022-11-18T03:10:55.000Z,5.43
2022-11-18T03:14:28.824Z,5.42
2022-11-18T03:18:04.354Z,5.47
2022-11-18T03:21:10.223Z,5.44
2022-11-18T03:24:33.815Z,5.52
2022-11-18T03:28:14.487Z,5.59
2022-11-18T03:31:25.125Z,5.54
2022-11-18T03:34:39.556Z,5.56
2022-11-18T03:37:45.373Z,5.64
2022-11-18T03:40:55.016Z,5.61
2022-11-18T03:44:12.220Z,5.55
2022-11-18T03:47:24.530Z,5.46
2022-11-18T03:50:35.854Z,5.53
2022-11-18T03:53:44.189Z,5.40
2022-11-18T03:56:54.834Z,5.36
2022-11-18T04:00:07.747Z,5.25
2022-11-18T04:03:11.687Z,5.24
2022-11-18T04:06:28.186Z,5.25
2022-11-18T04:09:41.549Z,5.18
2022-11-18T04:12:54.762Z,5.14
2022-11-18T04:15:59.071Z,5.14
2022-11-18T04:19:06.361Z,5.13
2022-11-18T04:22:11.343Z,5.11
2022-11-18T04:25:16.003Z,5.13
2022-11-18T04:28:19.814Z,5.06
2022-11-18T04:31:23.628Z,5.02
2022-11-18T04:34:28.332Z,4.93
2022-11-18T04:37:32.588Z,4.87
2022-11-18T04:40:36.538Z,4.88
2022-11-18T04:43:41.179Z,4.93
2022-11-18T04:46:45.378Z,4.92
2022-11-18T04:49:49.684Z,4.80
2022-11-18T04:52:53.910Z,4.81
2022-11-18T04:56:04.683Z,4.82
2022-11-18T04:59:09.141Z,4.68
2022-11-18T05:02:13.682Z,4.71
2022-11-18T05:05:17.458Z,4.77
2022-11-18T05:08:21.408Z,4.72
2022-11-18T05:11:45.502Z,4.73
2022-11-18T05:14:51.012Z,4.73
2022-11-18T05:17:55.281Z,4.77
2022-11-18T05:20:59.536Z,4.62
2022-11-18T05:24:04.847Z,4.69
2022-11-18T05:27:09.453Z,4.58
2022-11-18T05:30:14.018Z,4.44
2022-11-18T05:33:18.035Z,4.42
2022-11-18T05:36:22.585Z,4.35
2022-11-18T05:39:26.511Z,4.28
2022-11-18T05:42:49.296Z,4.33
2022-11-18T05:45:53.440Z,4.33
2022-11-18T05:48:57.583Z,4.37
2022-11-18T05:52:01.773Z,4.25
2022-11-18T05:55:06.752Z,4.19
2022-11-18T05:58:10.828Z,4.22
2022-11-18T06:01:19.513Z,4.14
2022-11-18T06:04:38.050Z,4.11
2022-11-18T06:07:44.052Z,4.07
2022-11-18T06:10:49.108Z,4.16
2022-11-18T06:14:04.950Z,4.23
2022-11-18T06:17:18.672Z,4.28
2022-11-18T06:20:23.296Z,4.19
2022-11-18T06:23:29.534Z,4.02
2022-11-18T06:26:33.513Z,4.02
2022-11-18T06:29:37.499Z,3.96
2022-11-18T06:32:41.883Z,3.93
2022-11-18T06:35:46.288Z,3.97
2022-11-18T06:38:50.024Z,4.00
2022-11-18T06:41:54.314Z,4.05
2022-11-18T06:44:58.441Z,4.11
2022-11-18T06:48:04.092Z,3.99
2022-11-18T06:51:08.154Z,3.94
2022-11-18T06:54:12.521Z,3.90
2022-11-18T06:57:16.327Z,3.89
2022-11-18T07:00:20.775Z,3.95
2022-11-18T07:03:24.907Z,3.85
2022-11-18T07:06:31.306Z,3.72
2022-11-18T07:09:36.271Z,3.70
2022-11-18T07:12:39.987Z,3.76
2022-11-18T07:15:43.988Z,3.69
2022-11-18T07:18:50.049Z,3.74
2022-11-18T07:21:54.351Z,3.77
2022-11-18T07:24:58.686Z,3.78
2022-11-18T07:28:02.604Z,3.78
2022-11-18T07:31:11.941Z,3.80
2022-11-18T07:34:16.126Z,3.71
2022-11-18T07:37:20.174Z,3.74
2022-11-18T07:40:24.048Z,3.71
2022-11-18T07:43:28.362Z,3.65
2022-11-18T07:46:34.781Z,3.70
2022-11-18T07:49:38.568Z,3.66
2022-11-18T07:52:42.462Z,3.63
2022-11-18T07:55:46.555Z,3.68
2022-11-18T07:58:55.575Z,3.73
2022-11-18T08:02:00.041Z,3.77
2022-11-18T08:05:04.450Z,3.58
2022-11-18T08:08:08.596Z,3.45
2022-11-18T08:11:20.592Z,3.50
2022-11-18T08:14:28.601Z,3.49
2022-11-18T08:17:32.839Z,3.46
2022-11-18T08:20:37.032Z,3.42
2022-11-18T08:23:42.621Z,3.36
2022-11-18T08:26:47.250Z,3.30
2022-11-18T08:29:51.706Z,3.33
2022-11-18T08:32:56.249Z,3.32
2022-11-18T08:36:06.446Z,3.18
2022-11-18T08:39:11.767Z,3.11
2022-11-18T08:42:15.501Z,3.13
2022-11-18T08:45:19.478Z,3.18
2022-11-18T08:48:23.811Z,3.13
2022-11-18T08:51:28.601Z,3.14
2022-11-18T08:54:32.720Z,3.10
2022-11-18T08:57:36.906Z,3.09
2022-11-18T09:00:41.133Z,2.99
2022-11-18T09:03:45.661Z,3.05
2022-11-18T09:06:49.797Z,2.88
2022-11-18T09:09:53.874Z,2.85
2022-11-18T09:13:18.105Z,2.75
2022-11-18T09:16:27.666Z,2.67
2022-11-18T09:19:46.695Z,2.73
2022-11-18T09:22:51.513Z,2.68
2022-11-18T09:26:02.887Z,2.65
2022-11-18T09:29:08.441Z,2.58
2022-11-18T09:32:12.403Z,2.47
2022-11-18T09:35:16.524Z,2.45
2022-11-18T09:38:21.008Z,2.34
2022-11-18T09:41:43.830Z,2.45
2022-11-18T09:44:57.959Z,2.33
2022-11-18T09:48:18.173Z,2.23
2022-11-18T09:51:27.614Z,2.09
2022-11-18T09:54:34.746Z,2.11
2022-11-18T09:57:43.812Z,2.18
2022-11-18T10:00:48.088Z,2.03
2022-11-18T10:03:52.582Z,2.14
2022-11-18T10:06:56.759Z,2.16
2022-11-18T10:10:03.557Z,2.08
2022-11-18T10:13:23.347Z,2.07
2022-11-18T10:16:42.107Z,2.17
2022-11-18T10:20:04.050Z,2.15
2022-11-18T10:23:19.028Z,2.11
2022-11-18T10:26:38.423Z,2.21
2022-11-18T10:29:44.704Z,2.21
2022-11-18T10:32:56.569Z,2.21
2022-11-18T10:36:27.809Z,2.05
2022-11-18T10:39:32.604Z,1.98
2022-11-18T10:42:48.329Z,1.97
2022-11-18T10:45:52.042Z,1.78
2022-11-18T10:49:17.287Z,1.80
2022-11-18T10:52:22.318Z,1.71
2022-11-18T10:55:28.387Z,1.76
2022-11-18T10:58:37.635Z,1.82
2022-11-18T11:01:41.838Z,1.86
2022-11-18T11:04:48.534Z,1.82
2022-11-18T11:08:35.845Z,1.89
2022-11-18T11:12:01.849Z,1.79
2022-11-18T11:15:21.587Z,1.86
2022-11-18T11:18:44.654Z,1.86
2022-11-18T11:21:48.940Z,1.88
2022-11-18T11:24:53.181Z,1.92
2022-11-18T11:28:24.647Z,2.02
2022-11-18T11:31:59.400Z,2.03
2022-11-18T11:35:21.660Z,1.95
2022-11-18T11:38:42.300Z,1.92
2022-11-18T11:42:02.817Z,1.87
2022-11-18T11:45:17.312Z,1.77
2022-11-18T11:48:51.580Z,1.80
2022-11-18T11:52:05.681Z,1.78
2022-11-18T11:55:15.345Z,1.75
2022-11-18T11:58:37.435Z,1.84
2022-11-18T12:02:00.483Z,1.87
2022-11-18T12:05:24.261Z,1.78
2022-11-18T12:08:29.539Z,1.80
2022-11-18T12:12:34.970Z,1.83
2022-11-18T12:15:56.082Z,1.80
2022-11-18T12:19:06.983Z,1.89
2022-11-18T12:22:11.210Z,1.97
2022-11-18T12:25:46.463Z,1.82
2022-11-18T12:28:50.508Z,1.82
2022-11-18T12:31:57.197Z,1.69
2022-11-18T12:35:13.569Z,1.74
2022-11-18T12:38:31.950Z,1.83
2022-11-18T12:42:00.457Z,1.85
2022-11-18T12:45:42.417Z,1.79
2022-11-18T12:48:46.381Z,1.57
2022-11-18T12:51:51.864Z,1.50
2022-11-18T12:54:59.886Z,1.44
2022-11-18T12:58:04.040Z,1.43
2022-11-18T13:01:11.858Z,1.38
2022-11-18T13:04:22.171Z,1.22
2022-11-18T13:07:44.796Z,1.22
2022-11-18T13:10:55.920Z,1.19
2022-11-18T13:14:20.226Z,1.11
2022-11-18T13:17:51.751Z,1.20
2022-11-18T13:21:24.038Z,1.12
2022-11-18T13:24:27.930Z,1.18
2022-11-18T13:27:49.210Z,1.13
2022-11-18T13:31:03.968Z,1.14
2022-11-18T13:34:18.055Z,0.93
2022-11-18T13:37:34.215Z,1.07
2022-11-18T13:41:03.872Z,0.98
2022-11-18T13:44:24.868Z,1.06
2022-11-18T13:47:55.201Z,1.12
2022-11-18T13:51:01.304Z,1.14
2022-11-18T13:54:05.627Z,1.09
2022-11-18T13:57:19.784Z,0.96
2022-11-18T14:00:29.554Z,1.00
2022-11-18T14:03:48.853Z,0.78
2022-11-18T14:06:53.607Z,0.78
2022-11-18T14:10:06.739Z,0.87
2022-11-18T14:13:29.528Z,0.82
2022-11-18T14:16:35.121Z,0.69
2022-11-18T14:19:40.524Z,0.52
2022-11-18T14:22:44.810Z,0.56
2022-11-18T14:25:48.611Z,0.41
2022-11-18T14:28:58.573Z,0.39
2022-11-18T14:32:11.632Z,0.44
2022-11-18T14:35:15.897Z,0.43
2022-11-18T14:38:37.067Z,0.48
2022-11-18T14:41:48.981Z,0.54
2022-11-18T14:44:53.206Z,0.48
2022-11-18T14:47:57.371Z,0.51
2022-11-18T14:51:01.588Z,0.52
2022-11-18T14:54:05.837Z,0.60
2022-11-18T14:57:14.636Z,0.51
2022-11-18T15:00:19.595Z,0.55
2022-11-18T15:03:24.145Z,0.52
2022-11-18T15:06:28.533Z,0.45
2022-11-18T15:09:32.788Z,0.39
2022-11-18T15:12:36.596Z,0.42
2022-11-18T15:15:40.553Z,0.45
2022-11-18T15:18:47.916Z,0.49
2022-11-18T15:21:52.013Z,0.43
2022-11-18T15:24:56.097Z,0.32
2022-11-18T15:27:59.849Z,0.28
2022-11-18T15:31:03.753Z,0.37
2022-11-18T15:34:07.968Z,0.42
2022-11-18T15:37:12.608Z,0.42
2022-11-18T15:40:17.190Z,0.36
2022-11-18T15:43:20.958Z,0.34
2022-11-18T15:46:27.017Z,0.41
2022-11-18T15:49:30.847Z,0.33
2022-11-18T15:52:35.503Z,0.34
2022-11-18T15:55:39.772Z,0.39
2022-11-18T15:58:44.251Z,0.43
2022-11-18T16:01:49.184Z,0.44
2022-11-18T16:04:53.022Z,0.43
2022-11-18T16:07:57.582Z,0.39
2022-11-18T16:11:20.170Z,0.40
2022-11-18T16:14:24.711Z,0.30
2022-11-18T16:17:28.634Z,0.21
2022-11-18T16:20:32.984Z,0.09
2022-11-18T16:23:37.553Z,0.15
2022-11-18T16:26:41.918Z,0.12
2022-11-18T16:29:46.272Z,0.22
2022-11-18T16:32:51.644Z,0.31
2022-11-18T16:35:55.518Z,0.22
2022-11-18T16:39:05.239Z,0.23
2022-11-18T16:42:11.197Z,0.20
2022-11-18T16:45:15.114Z,0.26
2022-11-18T16:48:20.271Z,0.45
2022-11-18T16:51:26.428Z,0.43
2022-11-18T16:54:31.891Z,0.46
2022-11-18T16:57:36.175Z,0.53
2022-11-18T17:01:14.670Z,0.56
2022-11-18T17:04:03.877Z,0.55
2022-11-18T17:07:08.207Z,0.53
2022-11-18T17:10:19.772Z,0.64
2022-11-18T17:13:23.588Z,0.66
2022-11-18T17:16:27.677Z,0.56
2022-11-18T17:19:31.800Z,0.58
2022-11-18T17:22:36.017Z,0.50
2022-11-18T17:25:40.151Z,0.55
2022-11-18T17:28:44.218Z,0.54
2022-11-18T17:31:48.737Z,0.53
2022-11-18T17:34:53.349Z,0.50
2022-11-18T17:37:57.405Z,0.51
2022-11-18T17:41:01.855Z,0.63
2022-11-18T17:44:08.142Z,0.58
2022-11-18T17:47:12.096Z,0.57
2022-11-18T17:50:16.673Z,0.51
2022-11-18T17:53:21.098Z,0.47
2022-11-18T17:56:26.432Z,0.42
2022-11-18T17:59:30.725Z,0.43
2022-11-18T18:02:37.111Z,0.46
2022-11-18T18:05:40.980Z,0.34
2022-11-18T18:08:45.248Z,0.39
2022-11-18T18:11:49.834Z,0.28
2022-11-18T18:14:53.821Z,0.36
2022-11-18T18:17:58.476Z,0.36
2022-11-18T18:21:02.432Z,0.28
2022-11-18T18:24:07.918Z,0.29
2022-11-18T18:27:11.698Z,0.31
2022-11-18T18:30:16.323Z,0.33
2022-11-18T18:33:20.498Z,0.19
2022-11-18T18:36:25.239Z,0.23
2022-11-18T18:39:29.656Z,0.19
2022-11-18T18:42:33.789Z,0.03
2022-11-18T18:45:56.457Z,0.05
2022-11-18T18:49:05.130Z,0.03
2022-11-18T18:52:09.158Z,0.00
2022-11-18T18:55:13.355Z,-0.04
2022-11-18T18:58:17.431Z,-0.05
2022-11-18T19:01:22.020Z,-0.09
2022-11-18T19:04:26.363Z,0.00
2022-11-18T19:07:31.495Z,0.01
2022-11-18T19:10:39.344Z,-0.02
2022-11-18T19:13:43.451Z,0.02
2022-11-18T19:16:51.069Z,-0.01
2022-11-18T19:20:14.134Z,0.00
2022-11-18T19:23:19.452Z,0.12
2022-11-18T19:26:23.708Z,0.12
2022-11-18T19:29:27.925Z,0.05
2022-11-18T19:32:36.019Z,0.04
2022-11-18T19:35:40.155Z,0.05
2022-11-18T19:38:44.816Z,0.09
2022-11-18T19:41:49.105Z,0.06
2022-11-18T19:44:53.560Z,0.03
2022-11-18T19:47:59.173Z,0.06
2022-11-18T19:51:05.529Z,0.05
2022-11-18T19:54:09.517Z,0.15
2022-11-18T19:57:13.616Z,0.12
2022-11-18T20:00:18.554Z,0.17
2022-11-18T20:03:22.750Z,0.07
2022-11-18T20:06:27.652Z,-0.04
2022-11-18T20:09:31.913Z,-0.08
2022-11-18T20:12:36.421Z,-0.19
2022-11-18T20:15:41.234Z,-0.22
2022-11-18T20:18:49.247Z,-0.25
2022-11-18T20:21:53.425Z,-0.34
2022-11-18T20:24:57.732Z,-0.33
2022-11-18T20:28:01.601Z,-0.40
2022-11-18T20:31:08.167Z,-0.39
2022-11-18T20:34:14.401Z,-0.42
2022-11-18T20:37:18.996Z,-0.45
2022-11-18T20:40:23.450Z,-0.50
2022-11-18T20:43:27.804Z,-0.49
2022-11-18T20:46:34.243Z,-0.37
2022-11-18T20:49:38.692Z,-0.40
2022-11-18T20:52:42.898Z,-0.43
2022-11-18T20:55:50.072Z,-0.33
2022-11-18T20:58:55.937Z,-0.37
2022-11-18T21:01:59.796Z,-0.34
2022-11-18T21:05:04.480Z,-0.36
2022-11-18T21:08:09.381Z,-0.29
2022-11-18T21:11:14.523Z,-0.32
2022-11-18T21:14:24.087Z,-0.28
2022-11-18T21:17:29.322Z,-0.28
2022-11-18T21:20:52.408Z,-0.26
2022-11-18T21:23:57.398Z,-0.20
2022-11-18T21:27:02.689Z,-0.29
2022-11-18T21:30:07.530Z,-0.23
2022-11-18T21:33:12.672Z,-0.21
2022-11-18T21:36:17.853Z,-0.23
2022-11-18T21:39:22.927Z,-0.13
2022-11-18T21:42:26.813Z,-0.18
2022-11-18T21:45:31.383Z,-0.22
2022-11-18T21:48:36.370Z,-0.23
2022-11-18T21:51:40.722Z,-0.12
2022-11-18T21:54:44.929Z,-0.21
2022-11-18T21:57:49.140Z,-0.14
2022-11-18T22:00:53.309Z,-0.19
2022-11-18T22:03:59.459Z,-0.27
2022-11-18T22:07:05.181Z,-0.29
2022-11-18T22:10:09.743Z,-0.23
2022-11-18T22:13:13.699Z,-0.24
2022-11-18T22:16:19.689Z,-0.23
2022-11-18T22:19:24.070Z,-0.27
2022-11-18T22:22:28.700Z,-0.24
2022-11-18T22:25:33.151Z,-0.25
2022-11-18T22:28:38.117Z,-0.28
2022-11-18T22:31:42.130Z,-0.32
2022-11-18T22:34:51.627Z,-0.32
2022-11-18T22:37:56.001Z,-0.33
2022-11-18T22:41:09.361Z,-0.51
2022-11-18T22:44:15.570Z,-0.51
2022-11-18T22:47:19.901Z,-0.45
2022-11-18T22:50:23.805Z,-0.50
2022-11-18T22:53:28.845Z,-0.53
2022-11-18T22:56:33.165Z,-0.46
2022-11-18T22:59:37.647Z,-0.47
2022-11-18T23:02:41.762Z,-0.49
2022-11-18T23:05:46.675Z,-0.52
2022-11-18T23:08:50.461Z,-0.48
2022-11-18T23:12:12.959Z,-0.46
2022-11-18T23:15:17.252Z,-0.60
2022-11-18T23:18:21.660Z,-0.67
2022-11-18T23:21:25.759Z,-0.69
2022-11-18T23:24:29.735Z,-0.74
2022-11-18T23:27:33.625Z,-0.73
2022-11-18T23:30:37.654Z,-0.85
2022-11-18T23:33:43.067Z,-0.97
2022-11-18T23:36:46.913Z,-1.03
2022-11-18T23:39:51.085Z,-0.96
2022-11-18T23:42:56.255Z,-1.08
2022-11-18T23:46:00.836Z,-1.14
2022-11-18T23:49:09.481Z,-1.18
2022-11-18T23:52:14.870Z,-1.24
2022-11-18T23:55:18.794Z,-1.17
2022-11-18T23:58:23.323Z,-1.13
